Time;durP1;ratioP1;P1;durP2;ratioP2;P2;SDS_P1;SDS_P2;PMS_P1;PMS_P2;Temp;Humidity;BMP_temperature;BMP_pressure;BME280_temperature;BME280_humidity;BME280_pressure;Samples;Min_cycle;Max_cycle;Signal;HPM_P1;HPM_P2
2021/07/29 00:00:52;;;;;;;3.73;2.47;;;19.10;99.90;;;;;;4816058;29;20219;-69
2021/07/29 00:03:17;;;;;;;2.40;2.20;;;19.10;99.90;;;;;;4810985;29;20230;-69
2021/07/29 00:05:43;;;;;;;4.20;2.60;;;19.10;99.90;;;;;;4811067;29;20647;-68
2021/07/29 00:08:09;;;;;;;3.60;3.20;;;19.10;99.90;;;;;;4800660;29;20276;-68
2021/07/29 00:10:34;;;;;;;2.83;2.53;;;19.10;99.90;;;;;;4816562;29;20234;-70
2021/07/29 00:13:00;;;;;;;3.13;2.83;;;19.10;99.90;;;;;;4805724;29;20223;-69
2021/07/29 00:15:26;;;;;;;3.23;2.20;;;19.10;99.90;;;;;;4807377;29;20243;-69
2021/07/29 00:20:22;;;;;;;2.37;2.13;;;19.00;99.90;;;;;;4815027;29;20227;-69
2021/07/29 00:22:52;;;;;;;3.40;3.10;;;19.00;99.90;;;;;;4821161;29;20639;-70
2021/07/29 00:25:18;;;;;;;3.33;2.87;;;19.00;99.90;;;;;;4831647;29;20484;-69
2021/07/29 00:27:44;;;;;;;6.00;2.67;;;19.10;99.90;;;;;;4818525;29;20486;-68
2021/07/29 00:30:11;;;;;;;2.80;2.50;;;19.00;99.90;;;;;;4826098;29;20468;-69
2021/07/29 00:32:38;;;;;;;2.50;2.30;;;19.00;99.90;;;;;;4819314;29;20246;-69
2021/07/29 00:35:05;;;;;;;6.80;3.70;;;19.00;99.90;;;;;;4801247;29;20464;-69
2021/07/29 00:37:33;;;;;;;3.03;2.80;;;19.00;99.90;;;;;;4811544;29;20841;-70
2021/07/29 00:39:59;;;;;;;3.03;2.53;;;19.00;99.90;;;;;;4814973;29;22110;-69
2021/07/29 00:42:25;;;;;;;2.60;2.40;;;19.00;99.90;;;;;;4804301;29;20532;-68
2021/07/29 00:44:51;;;;;;;3.17;2.33;;;18.90;99.90;;;;;;4819139;29;21183;-69
2021/07/29 00:47:18;;;;;;;3.50;2.80;;;18.90;99.90;;;;;;4822782;29;20246;-70
2021/07/29 00:49:44;;;;;;;4.53;3.20;;;18.90;99.90;;;;;;4804848;29;20708;-70
2021/07/29 00:52:10;;;;;;;3.60;2.70;;;18.90;99.90;;;;;;4802069;29;20496;-68
2021/07/29 00:54:36;;;;;;;2.80;2.33;;;18.90;99.90;;;;;;4807152;29;20584;-69
2021/07/29 00:57:02;;;;;;;2.43;2.10;;;18.90;99.90;;;;;;4807037;29;20238;-69
2021/07/29 00:59:29;;;;;;;6.30;3.30;;;18.80;99.90;;;;;;4805882;29;20479;-70
2021/07/29 01:01:54;;;;;;;3.40;3.10;;;18.80;99.90;;;;;;4807201;29;20460;-68
2021/07/29 01:04:20;;;;;;;3.77;3.47;;;18.80;99.90;;;;;;4818945;29;20887;-69
2021/07/29 01:06:46;;;;;;;3.57;2.97;;;18.70;99.90;;;;;;4822535;29;20235;-69
2021/07/29 01:09:12;;;;;;;4.03;2.90;;;18.70;99.90;;;;;;4822818;29;20231;-69
2021/07/29 01:11:43;;;;;;;4.53;3.27;;;18.70;99.90;;;;;;4807600;29;20533;-69
2021/07/29 01:14:09;;;;;;;5.80;3.00;;;18.70;99.90;;;;;;4804828;29;20231;-68
2021/07/29 01:16:35;;;;;;;3.17;2.57;;;18.70;99.90;;;;;;4822796;29;20460;-69
2021/07/29 01:19:02;;;;;;;3.27;2.87;;;18.70;99.90;;;;;;4822455;29;21182;-69
2021/07/29 01:21:29;;;;;;;3.90;2.90;;;18.70;99.90;;;;;;4804038;29;20224;-69
2021/07/29 01:23:56;;;;;;;3.37;3.03;;;18.70;99.90;;;;;;4813760;29;20533;-69
2021/07/29 01:26:22;;;;;;;3.13;2.60;;;18.70;99.90;;;;;;4802858;29;20481;-69
2021/07/29 01:28:49;;;;;;;3.30;3.00;;;18.70;99.90;;;;;;4821064;29;20488;-68
2021/07/29 01:31:14;;;;;;;3.30;3.00;;;18.80;99.90;;;;;;4802211;29;20565;-68
2021/07/29 01:33:40;;;;;;;7.13;2.67;;;18.80;99.90;;;;;;4818260;29;20576;-68
2021/07/29 01:36:06;;;;;;;4.30;2.83;;;18.80;99.90;;;;;;4801047;29;20319;-69
2021/07/29 01:38:32;;;;;;;3.27;3.00;;;18.80;99.90;;;;;;4802497;29;20553;-69
2021/07/29 01:40:58;;;;;;;3.30;2.50;;;18.80;99.90;;;;;;4809339;29;20231;-68
2021/07/29 01:43:25;;;;;;;3.00;2.70;;;18.80;99.90;;;;;;4814689;29;20472;-69
2021/07/29 01:45:50;;;;;;;5.70;3.13;;;18.80;99.90;;;;;;4807938;29;20295;-68
2021/07/29 01:48:16;;;;;;;4.40;3.07;;;18.80;99.90;;;;;;4820217;29;20993;-69
2021/07/29 01:50:45;;;;;;;3.53;3.13;;;18.80;99.90;;;;;;4791846;29;20244;-68
2021/07/29 01:53:10;;;;;;;3.57;2.77;;;18.70;99.90;;;;;;4799736;29;20230;-68
2021/07/29 01:55:41;;;;;;;7.17;3.13;;;18.70;99.90;;;;;;4805833;29;20808;-69
2021/07/29 01:58:07;;;;;;;4.57;3.20;;;18.70;99.90;;;;;;4813840;29;20258;-69
2021/07/29 02:00:34;;;;;;;4.93;2.50;;;18.70;99.90;;;;;;4815083;29;20881;-70
2021/07/29 02:03:02;;;;;;;6.43;3.00;;;18.60;99.90;;;;;;4819598;29;22200;-70
2021/07/29 02:05:27;;;;;;;2.50;2.30;;;18.70;99.90;;;;;;4805483;29;20469;-68
2021/07/29 02:07:53;;;;;;;3.23;2.93;;;18.60;99.90;;;;;;4828855;29;20540;-68
2021/07/29 02:10:19;;;;;;;4.07;2.70;;;18.60;99.90;;;;;;4827671;29;20307;-68
2021/07/29 02:12:44;;;;;;;3.33;3.00;;;18.70;99.90;;;;;;4801850;29;20231;-69
2021/07/29 02:15:11;;;;;;;6.93;3.67;;;18.70;99.90;;;;;;4819550;29;20219;-69
2021/07/29 02:17:37;;;;;;;3.00;2.60;;;18.70;99.90;;;;;;4793652;29;20473;-69
2021/07/29 02:20:02;;;;;;;2.80;2.60;;;18.60;99.90;;;;;;4802220;29;20275;-69
2021/07/29 02:22:28;;;;;;;3.80;3.00;;;18.60;99.90;;;;;;4817762;29;20319;-68
2021/07/29 02:24:54;;;;;;;2.77;2.57;;;18.60;99.90;;;;;;4818728;29;20251;-70
2021/07/29 02:27:23;;;;;;;2.60;2.40;;;18.50;99.90;;;;;;4803175;29;20234;-68
2021/07/29 02:29:49;;;;;;;5.57;2.73;;;18.50;99.90;;;;;;4809377;29;20663;-70
2021/07/29 02:32:15;;;;;;;4.33;2.80;;;18.50;99.90;;;;;;4807410;29;20476;-69
2021/07/29 02:34:40;;;;;;;4.60;2.67;;;18.50;99.90;;;;;;4805355;29;20470;-69
2021/07/29 02:37:06;;;;;;;3.23;2.93;;;18.50;99.90;;;;;;4832161;29;20235;-68
2021/07/29 02:39:32;;;;;;;2.60;2.40;;;18.50;99.90;;;;;;4813291;29;20607;-68
2021/07/29 02:41:58;;;;;;;2.70;2.50;;;18.50;99.90;;;;;;4822276;29;20307;-68
2021/07/29 02:44:23;;;;;;;4.20;3.20;;;18.50;99.90;;;;;;4827180;29;20636;-69
2021/07/29 02:46:49;;;;;;;4.33;2.97;;;18.40;99.90;;;;;;4807486;29;20331;-71
2021/07/29 02:49:15;;;;;;;2.97;2.63;;;18.40;99.90;;;;;;4806763;29;20226;-69
2021/07/29 02:51:40;;;;;;;3.00;2.67;;;18.30;99.90;;;;;;4801619;29;20307;-69
2021/07/29 02:54:06;;;;;;;2.90;2.60;;;18.40;99.90;;;;;;4806290;29;20229;-69
2021/07/29 02:56:31;;;;;;;4.60;2.80;;;18.30;99.90;;;;;;4809725;29;20592;-69
2021/07/29 02:58:57;;;;;;;3.37;2.83;;;18.40;99.90;;;;;;4811956;29;20235;-68
2021/07/29 03:01:23;;;;;;;3.07;2.77;;;18.40;99.90;;;;;;4798034;29;20287;-68
2021/07/29 03:03:48;;;;;;;3.20;2.93;;;18.40;99.90;;;;;;4822926;29;20231;-68
2021/07/29 03:06:14;;;;;;;4.70;2.93;;;18.30;99.90;;;;;;4809402;29;20232;-69
2021/07/29 03:08:40;;;;;;;3.20;2.90;;;18.30;99.90;;;;;;4819521;29;20250;-69
2021/07/29 03:11:08;;;;;;;3.67;2.73;;;18.30;99.90;;;;;;4836700;29;20250;-69
2021/07/29 03:13:34;;;;;;;3.23;2.53;;;18.20;99.90;;;;;;4807341;29;20226;-68
2021/07/29 03:15:59;;;;;;;5.07;3.03;;;18.20;99.90;;;;;;4814785;29;20454;-69
2021/07/29 03:18:25;;;;;;;2.83;2.53;;;18.10;99.90;;;;;;4803777;29;20232;-68
2021/07/29 03:20:51;;;;;;;3.63;3.30;;;18.00;99.90;;;;;;4801769;29;20298;-69
2021/07/29 03:23:17;;;;;;;3.43;3.10;;;17.90;99.90;;;;;;4805878;29;20740;-70
2021/07/29 03:25:48;;;;;;;4.10;3.27;;;17.90;99.90;;;;;;4807970;29;20525;-68
2021/07/29 03:28:14;;;;;;;3.37;2.63;;;17.80;99.90;;;;;;4808550;29;20231;-68
2021/07/29 03:30:40;;;;;;;4.30;2.93;;;17.80;99.90;;;;;;4818889;29;20499;-69
2021/07/29 03:33:07;;;;;;;3.83;3.10;;;17.80;99.90;;;;;;4819372;29;20714;-68
2021/07/29 03:35:32;;;;;;;3.90;2.80;;;17.80;99.90;;;;;;4803481;29;20227;-72
2021/07/29 03:37:58;;;;;;;4.90;3.50;;;17.80;99.90;;;;;;4806494;29;20517;-68
2021/07/29 03:40:24;;;;;;;3.57;3.27;;;17.70;99.90;;;;;;4823220;29;20223;-68
2021/07/29 03:42:49;;;;;;;4.30;3.30;;;17.70;99.90;;;;;;4821991;29;20223;-69
2021/07/29 03:45:15;;;;;;;4.23;3.00;;;17.70;99.90;;;;;;4838554;29;20700;-68
2021/07/29 03:47:41;;;;;;;3.67;3.37;;;17.60;99.90;;;;;;4807979;29;20268;-68
2021/07/29 03:50:07;;;;;;;3.27;2.90;;;17.60;99.90;;;;;;4808150;29;20722;-68
2021/07/29 03:52:37;;;;;;;4.70;3.20;;;17.60;99.90;;;;;;4808536;29;20713;-68
2021/07/29 03:55:06;;;;;;;3.57;3.27;;;17.50;99.90;;;;;;4823005;29;20452;-68
2021/07/29 03:57:32;;;;;;;5.07;3.90;;;17.50;99.90;;;;;;4823367;29;20521;-70
2021/07/29 03:59:58;;;;;;;3.30;3.00;;;17.50;99.90;;;;;;4823186;29;20464;-68
2021/07/29 04:02:23;;;;;;;3.10;2.80;;;17.40;99.90;;;;;;4808212;29;20251;-69
2021/07/29 04:04:49;;;;;;;4.83;3.40;;;17.40;99.90;;;;;;4823465;29;20235;-68
2021/07/29 04:07:14;;;;;;;4.93;3.10;;;17.50;99.90;;;;;;4823124;29;20246;-68
2021/07/29 04:09:40;;;;;;;2.97;2.57;;;17.50;99.90;;;;;;4823001;29;20227;-68
2021/07/29 04:12:06;;;;;;;3.67;3.30;;;17.50;99.90;;;;;;4808054;29;20688;-68
2021/07/29 04:14:32;;;;;;;4.03;3.60;;;17.50;99.90;;;;;;4808367;29;20241;-68
2021/07/29 04:16:58;;;;;;;3.50;3.03;;;17.50;99.90;;;;;;4806745;29;20483;-68
2021/07/29 04:19:24;;;;;;;5.40;3.50;;;17.50;99.90;;;;;;4807349;29;20460;-68
2021/07/29 04:21:50;;;;;;;4.60;3.73;;;17.40;99.90;;;;;;4837861;29;20322;-70
2021/07/29 04:24:18;;;;;;;3.37;3.07;;;17.50;99.90;;;;;;4823372;29;20687;-69
2021/07/29 04:26:44;;;;;;;4.27;3.17;;;17.50;99.90;;;;;;4820396;29;20239;-69
2021/07/29 04:29:10;;;;;;;5.00;2.70;;;17.50;99.90;;;;;;4808135;29;20597;-69
2021/07/29 04:31:35;;;;;;;4.20;2.93;;;17.50;99.90;;;;;;4807582;29;20478;-69
2021/07/29 04:34:01;;;;;;;4.80;3.20;;;17.50;99.90;;;;;;4808060;29;20294;-68
2021/07/29 04:36:27;;;;;;;4.87;3.60;;;17.50;99.90;;;;;;4822886;29;20750;-68
2021/07/29 04:38:52;;;;;;;4.53;3.53;;;17.50;99.90;;;;;;4830593;29;20223;-68
2021/07/29 04:41:18;;;;;;;3.77;2.90;;;17.60;99.90;;;;;;4807633;29;20274;-69
2021/07/29 04:43:44;;;;;;;5.27;3.30;;;17.50;99.90;;;;;;4808057;29;20239;-69
2021/07/29 04:46:09;;;;;;;4.90;3.00;;;17.50;99.90;;;;;;4808020;29;20283;-69
2021/07/29 04:48:35;;;;;;;5.37;3.13;;;17.50;99.90;;;;;;4807903;29;20322;-68
2021/07/29 04:51:05;;;;;;;5.47;3.20;;;17.50;99.90;;;;;;4822176;29;20227;-68
2021/07/29 04:53:32;;;;;;;2.90;2.60;;;17.50;99.90;;;;;;4808076;29;20590;-68
2021/07/29 04:55:57;;;;;;;3.60;3.30;;;17.40;99.90;;;;;;4807574;29;20471;-68
2021/07/29 04:58:23;;;;;;;5.07;3.50;;;17.40;99.90;;;;;;4822298;29;20461;-69
2021/07/29 05:00:49;;;;;;;5.50;3.50;;;17.40;99.90;;;;;;4803110;29;20680;-68
2021/07/29 05:03:14;;;;;;;3.73;3.17;;;17.40;99.90;;;;;;4805813;29;20247;-69
2021/07/29 05:05:40;;;;;;;5.27;3.53;;;17.40;99.90;;;;;;4808095;29;20215;-71
2021/07/29 05:08:06;;;;;;;4.23;3.47;;;17.40;99.90;;;;;;4810495;29;20585;-72
2021/07/29 05:10:32;;;;;;;6.23;3.33;;;17.40;99.90;;;;;;4810973;29;20231;-68
2021/07/29 05:12:58;;;;;;;3.73;3.13;;;17.40;99.90;;;;;;4804683;29;20715;-69
2021/07/29 05:15:23;;;;;;;6.67;3.70;;;17.40;99.90;;;;;;4811347;29;20723;-68
2021/07/29 05:17:54;;;;;;;4.40;3.33;;;17.40;99.90;;;;;;4810750;29;20460;-68
2021/07/29 05:20:23;;;;;;;5.67;4.10;;;17.40;99.90;;;;;;4840039;29;20215;-68
2021/07/29 05:22:49;;;;;;;4.10;2.90;;;17.40;99.90;;;;;;4825631;29;20464;-70
2021/07/29 05:25:22;;;;;;;5.73;3.33;;;17.40;99.90;;;;;;4807749;29;20468;-69
2021/07/29 05:27:49;;;;;;;4.07;3.20;;;17.40;99.90;;;;;;4823277;29;20774;-68
2021/07/29 05:30:15;;;;;;;5.63;3.37;;;17.40;99.90;;;;;;4809974;29;20987;-69
2021/07/29 05:32:41;;;;;;;4.90;3.20;;;17.40;99.90;;;;;;4809046;29;20488;-68
2021/07/29 05:35:08;;;;;;;4.63;3.40;;;17.40;99.90;;;;;;4810624;29;20511;-69
2021/07/29 05:37:34;;;;;;;6.57;3.33;;;17.50;99.90;;;;;;4828498;29;20238;-69
2021/07/29 05:39:59;;;;;;;3.97;3.57;;;17.50;99.90;;;;;;4840898;29;21027;-69
2021/07/29 05:42:25;;;;;;;3.70;2.80;;;17.50;99.90;;;;;;4808459;29;20501;-70
2021/07/29 05:44:51;;;;;;;3.13;2.77;;;17.60;99.90;;;;;;4823046;29;20222;-71
2021/07/29 05:47:17;;;;;;;4.50;3.67;;;17.60;99.90;;;;;;4825603;29;20237;-69
2021/07/29 05:49:43;;;;;;;3.40;3.10;;;17.60;99.90;;;;;;4810187;29;20992;-70
2021/07/29 05:52:08;;;;;;;4.63;3.00;;;17.60;99.90;;;;;;4825272;29;20504;-70
2021/07/29 05:54:34;;;;;;;7.13;3.90;;;17.70;99.90;;;;;;4810759;29;20264;-70
2021/07/29 05:57:00;;;;;;;5.47;3.37;;;17.70;99.90;;;;;;4809143;29;20231;-69
2021/07/29 05:59:25;;;;;;;3.33;2.90;;;17.70;99.90;;;;;;4824923;29;20310;-70
2021/07/29 06:01:51;;;;;;;4.00;3.60;;;17.70;99.90;;;;;;4810005;29;20605;-71
2021/07/29 06:04:17;;;;;;;3.17;2.90;;;17.70;99.90;;;;;;4841529;29;20663;-70
2021/07/29 06:06:42;;;;;;;3.80;3.50;;;17.70;99.90;;;;;;4809936;29;20227;-70
2021/07/29 06:09:08;;;;;;;5.60;4.07;;;17.70;99.90;;;;;;4821926;29;20229;-71
2021/07/29 06:11:33;;;;;;;5.77;3.20;;;17.70;99.90;;;;;;4825258;29;20312;-70
2021/07/29 06:14:00;;;;;;;4.90;3.90;;;17.80;99.90;;;;;;4841790;29;20768;-70
2021/07/29 06:16:26;;;;;;;5.27;3.53;;;17.80;99.90;;;;;;4810012;29;20231;-70
2021/07/29 06:21:34;;;;;;;3.70;3.00;;;17.80;99.90;;;;;;4825218;29;20283;-69
2021/07/29 06:24:00;;;;;;;4.03;2.73;;;17.80;99.90;;;;;;4824960;29;20468;-69
2021/07/29 06:26:26;;;;;;;3.93;3.10;;;17.80;99.90;;;;;;4809794;29;20468;-70
2021/07/29 06:28:52;;;;;;;3.50;3.20;;;17.90;99.90;;;;;;4809778;29;20532;-70
2021/07/29 06:31:17;;;;;;;4.67;3.70;;;17.90;99.90;;;;;;4809288;29;20544;-70
2021/07/29 06:33:43;;;;;;;5.67;3.53;;;17.90;99.90;;;;;;4809529;29;20227;-71
2021/07/29 06:36:09;;;;;;;5.03;2.87;;;17.90;99.90;;;;;;4809766;29;20227;-70
2021/07/29 06:38:34;;;;;;;6.10;3.57;;;18.00;99.90;;;;;;4805598;29;20608;-70
2021/07/29 06:41:04;;;;;;;6.47;2.50;;;18.00;99.90;;;;;;4819170;29;20609;-70
2021/07/29 06:43:30;;;;;;;4.10;3.47;;;18.00;99.90;;;;;;4807809;29;20235;-69
2021/07/29 06:45:55;;;;;;;3.63;3.30;;;18.00;99.90;;;;;;4840888;29;20468;-71
2021/07/29 06:48:21;;;;;;;4.70;3.10;;;18.00;99.90;;;;;;4807987;29;20319;-71
2021/07/29 06:50:46;;;;;;;5.10;3.50;;;18.10;99.90;;;;;;4803732;29;20346;-70
2021/07/29 06:53:12;;;;;;;3.83;3.17;;;18.10;99.90;;;;;;4822283;29;20775;-70
2021/07/29 06:55:38;;;;;;;3.70;3.40;;;18.20;99.90;;;;;;4838047;29;20304;-71
2021/07/29 06:58:04;;;;;;;4.07;3.20;;;18.30;99.90;;;;;;4817443;29;20227;-70
2021/07/29 07:00:30;;;;;;;3.73;3.10;;;18.30;99.90;;;;;;4813607;29;20235;-69
2021/07/29 07:02:55;;;;;;;5.00;3.50;;;18.30;99.90;;;;;;4819877;29;20472;-71
2021/07/29 07:05:21;;;;;;;3.60;3.17;;;18.40;99.90;;;;;;4821408;29;20233;-70
2021/07/29 07:07:47;;;;;;;4.80;3.27;;;18.40;99.90;;;;;;4802355;29;20227;-70
2021/07/29 07:10:12;;;;;;;3.40;3.10;;;18.50;99.90;;;;;;4811095;29;20258;-70
2021/07/29 07:12:38;;;;;;;2.80;2.27;;;18.50;99.90;;;;;;4804241;29;20276;-70
2021/07/29 07:15:04;;;;;;;4.13;2.57;;;18.60;99.90;;;;;;4804350;29;20703;-70
2021/07/29 07:17:30;;;;;;;3.63;3.10;;;18.70;99.90;;;;;;4834862;29;20579;-70
2021/07/29 07:20:00;;;;;;;6.63;3.47;;;18.70;99.90;;;;;;4806793;29;20456;-71
2021/07/29 07:22:26;;;;;;;8.73;2.80;;;18.80;99.90;;;;;;4807573;29;20227;-70
2021/07/29 07:24:52;;;;;;;3.67;3.23;;;18.80;99.90;;;;;;4821925;29;20476;-70
2021/07/29 07:27:18;;;;;;;3.37;3.07;;;18.90;99.90;;;;;;4807210;29;20555;-71
2021/07/29 07:29:44;;;;;;;4.70;3.00;;;19.00;99.90;;;;;;4820156;29;20475;-70
2021/07/29 07:32:10;;;;;;;3.67;3.13;;;19.00;99.90;;;;;;4821263;29;20464;-68
2021/07/29 07:34:35;;;;;;;3.50;2.60;;;19.00;99.90;;;;;;4808960;29;20231;-70
2021/07/29 07:37:01;;;;;;;2.57;2.37;;;19.10;99.90;;;;;;4823056;29;20307;-70
2021/07/29 07:39:27;;;;;;;3.60;3.10;;;19.20;99.90;;;;;;4806385;29;20235;-70
2021/07/29 07:41:55;;;;;;;3.80;3.03;;;19.20;99.90;;;;;;4839445;29;20227;-71
2021/07/29 07:44:21;;;;;;;2.40;2.20;;;19.20;99.90;;;;;;4838337;29;20223;-70
2021/07/29 07:46:46;;;;;;;5.30;4.60;;;19.30;99.90;;;;;;4820254;29;21106;-70
2021/07/29 07:49:12;;;;;;;3.53;2.60;;;19.40;99.90;;;;;;4804811;29;20231;-70
2021/07/29 07:51:39;;;;;;;3.37;2.60;;;19.50;99.90;;;;;;4804556;29;20242;-70
2021/07/29 07:54:05;;;;;;;3.40;2.50;;;19.50;99.90;;;;;;4812572;29;20231;-70
2021/07/29 07:56:30;;;;;;;3.13;2.83;;;19.60;99.90;;;;;;4807857;29;20563;-69
2021/07/29 07:58:56;;;;;;;6.40;2.53;;;19.60;99.90;;;;;;4807695;29;20238;-70
2021/07/29 08:01:21;;;;;;;3.07;2.30;;;19.70;99.90;;;;;;4807746;29;20230;-70
2021/07/29 08:03:47;;;;;;;3.17;2.87;;;19.80;99.90;;;;;;4817034;29;20238;-71
2021/07/29 08:06:13;;;;;;;2.60;2.37;;;19.90;99.90;;;;;;4807773;29;20227;-71
2021/07/29 08:08:39;;;;;;;2.73;2.53;;;19.90;99.90;;;;;;4806379;29;20270;-70
2021/07/29 08:11:05;;;;;;;5.50;2.93;;;20.00;99.90;;;;;;4802537;29;20527;-70
2021/07/29 08:13:30;;;;;;;4.17;2.77;;;20.10;99.90;;;;;;4806300;29;20229;-69
2021/07/29 08:15:56;;;;;;;2.60;2.40;;;20.20;99.90;;;;;;4818206;29;20283;-70
2021/07/29 08:18:22;;;;;;;3.33;2.50;;;20.20;99.90;;;;;;4819233;29;20234;-71
2021/07/29 08:20:48;;;;;;;3.23;2.53;;;20.20;99.90;;;;;;4818202;29;20239;-70
2021/07/29 08:23:13;;;;;;;2.60;2.40;;;20.30;99.90;;;;;;4804704;29;20223;-70
2021/07/29 08:25:39;;;;;;;3.10;2.80;;;20.40;99.90;;;;;;4820642;29;20238;-70
2021/07/29 08:28:05;;;;;;;3.53;2.70;;;20.50;99.90;;;;;;4815175;29;20242;-69
2021/07/29 08:30:32;;;;;;;2.30;2.10;;;20.60;99.90;;;;;;4819322;29;20328;-70
2021/07/29 08:32:58;;;;;;;3.07;2.67;;;20.70;99.90;;;;;;4802956;29;20536;-70
2021/07/29 08:35:23;;;;;;;4.90;2.97;;;20.70;99.90;;;;;;4819958;29;21012;-70
2021/07/29 08:37:50;;;;;;;3.20;2.50;;;20.80;99.90;;;;;;4801151;29;20258;-70
2021/07/29 08:40:20;;;;;;;3.43;2.73;;;20.80;99.90;;;;;;4804466;29;20218;-71
2021/07/29 08:42:47;;;;;;;4.00;3.10;;;20.80;99.90;;;;;;4800566;29;20471;-71
2021/07/29 08:45:13;;;;;;;5.67;2.70;;;20.70;99.90;;;;;;4823410;29;20452;-70
2021/07/29 08:47:44;;;;;;;5.57;2.43;;;20.80;99.90;;;;;;4807082;29;20556;-70
2021/07/29 08:50:10;;;;;;;4.27;2.67;;;20.80;99.90;;;;;;4829358;29;20231;-70
2021/07/29 08:52:36;;;;;;;2.27;2.07;;;20.90;99.90;;;;;;4839060;29;21004;-70
2021/07/29 08:55:02;;;;;;;7.93;3.10;;;21.00;99.90;;;;;;4836051;29;20496;-72
2021/07/29 08:57:35;;;;;;;2.87;2.67;;;21.10;99.90;;;;;;4823251;29;20614;-73
2021/07/29 09:00:11;;;;;;;2.63;2.30;;;21.20;99.90;;;;;;4806145;29;20463;-72
2021/07/29 09:02:37;;;;;;;2.53;2.33;;;21.30;99.90;;;;;;4823402;29;20464;-72
2021/07/29 09:05:09;;;;;;;2.13;2.03;;;21.40;99.90;;;;;;4806002;29;20532;-72
2021/07/29 09:07:35;;;;;;;4.30;2.40;;;21.50;99.90;;;;;;4823267;29;20239;-73
2021/07/29 09:10:05;;;;;;;2.90;2.57;;;21.60;99.60;;;;;;4840036;29;20987;-72
2021/07/29 09:12:31;;;;;;;3.47;2.93;;;21.60;99.30;;;;;;4809412;29;20505;-72
2021/07/29 09:14:56;;;;;;;3.13;2.73;;;21.60;99.80;;;;;;4802848;29;20462;-73
2021/07/29 09:17:23;;;;;;;2.13;1.90;;;21.60;99.80;;;;;;4821308;29;20744;-73
2021/07/29 09:19:53;;;;;;;3.73;2.87;;;21.70;99.20;;;;;;4812706;29;20247;-72
2021/07/29 09:22:23;;;;;;;3.13;2.80;;;21.80;99.30;;;;;;4839007;29;20472;-72
2021/07/29 09:25:07;;;;;;;2.30;2.10;;;21.90;99.80;;;;;;4804594;29;20476;-73
2021/07/29 09:27:38;;;;;;;3.23;2.70;;;22.00;99.50;;;;;;4807675;29;20503;-71
2021/07/29 09:30:16;;;;;;;2.77;2.50;;;22.10;99.00;;;;;;4820199;29;20468;-71
2021/07/29 09:32:52;;;;;;;2.80;2.60;;;22.10;99.20;;;;;;4819931;29;20502;-73
2021/07/29 09:35:34;;;;;;;2.70;2.50;;;22.10;98.70;;;;;;4806976;29;20488;-71
2021/07/29 09:38:18;;;;;;;3.13;2.83;;;22.00;98.60;;;;;;4819603;29;20555;-71
2021/07/29 09:40:46;;;;;;;3.73;3.03;;;22.00;98.60;;;;;;4816618;29;20488;-73
2021/07/29 09:43:14;;;;;;;5.17;2.90;;;22.00;98.80;;;;;;4803448;29;21066;-73
2021/07/29 09:45:42;;;;;;;2.80;2.60;;;22.00;98.70;;;;;;4816166;29;20945;-72
2021/07/29 09:48:09;;;;;;;4.60;2.47;;;22.10;98.40;;;;;;4819110;29;20961;-72
2021/07/29 09:50:37;;;;;;;4.37;3.97;;;22.10;98.70;;;;;;4833300;29;20503;-73
2021/07/29 09:53:03;;;;;;;5.70;3.10;;;22.20;99.20;;;;;;4831851;29;20463;-72
2021/07/29 09:55:30;;;;;;;3.70;3.40;;;22.30;99.30;;;;;;4801340;29;20559;-73
2021/07/29 09:58:00;;;;;;;2.90;2.70;;;22.40;97.90;;;;;;4810855;29;20484;-71
2021/07/29 10:00:26;;;;;;;2.77;2.47;;;22.40;97.30;;;;;;4804719;29;21009;-71
2021/07/29 10:02:54;;;;;;;3.30;2.70;;;22.40;97.20;;;;;;4815212;29;21038;-72
2021/07/29 10:05:44;;;;;;;2.73;2.53;;;22.40;96.50;;;;;;4820747;29;20479;-72
2021/07/29 10:08:35;;;;;;;2.70;2.50;;;22.30;96.00;;;;;;4806783;29;20463;-72
2021/07/29 10:11:05;;;;;;;2.40;2.20;;;22.20;96.10;;;;;;4815997;29;20504;-72
2021/07/29 10:13:38;;;;;;;3.13;2.70;;;22.10;96.10;;;;;;4822570;29;20468;-73
2021/07/29 10:16:09;;;;;;;2.30;1.97;;;22.10;96.30;;;;;;4803074;29;20537;-73
2021/07/29 10:19:03;;;;;;;2.30;2.10;;;22.00;96.10;;;;;;4797402;29;20510;-73
2021/07/29 10:21:33;;;;;;;3.10;2.80;;;22.00;95.90;;;;;;4818939;29;20492;-72
2021/07/29 10:24:00;;;;;;;2.90;2.60;;;22.00;95.50;;;;;;4818140;29;20477;-73
2021/07/29 10:26:31;;;;;;;2.60;2.40;;;22.00;95.40;;;;;;4819500;29;20468;-73
2021/07/29 10:29:18;;;;;;;2.03;1.83;;;22.00;95.80;;;;;;4814671;29;20500;-73
2021/07/29 10:31:52;;;;;;;1.60;1.50;;;22.10;95.30;;;;;;4835886;29;20488;-72
2021/07/29 10:34:29;;;;;;;3.50;2.20;;;22.00;94.20;;;;;;4805427;29;20485;-73
2021/07/29 10:37:08;;;;;;;2.50;2.20;;;21.90;94.30;;;;;;4802044;29;20480;-72
2021/07/29 10:39:57;;;;;;;3.00;2.23;;;21.90;94.50;;;;;;4806547;29;20473;-73
2021/07/29 10:42:27;;;;;;;2.90;2.60;;;21.80;94.50;;;;;;4801817;29;20501;-72
2021/07/29 10:44:54;;;;;;;3.13;2.30;;;21.80;94.50;;;;;;4831780;29;20480;-72
2021/07/29 10:47:39;;;;;;;2.60;2.40;;;21.80;94.40;;;;;;4820386;29;20484;-72
2021/07/29 10:50:10;;;;;;;3.30;2.33;;;21.80;94.20;;;;;;4806340;29;20448;-72
2021/07/29 10:52:37;;;;;;;2.23;1.90;;;21.80;94.50;;;;;;4803209;29;20478;-72
2021/07/29 10:55:03;;;;;;;2.77;2.57;;;21.90;95.10;;;;;;4821937;29;20448;-72
2021/07/29 10:58:10;;;;;;;2.70;2.50;;;22.10;95.60;;;;;;4813927;29;20477;-72
2021/07/29 11:00:36;;;;;;;6.07;2.20;;;22.30;95.80;;;;;;4815610;29;20468;-72
2021/07/29 11:03:09;;;;;;;2.67;2.20;;;22.40;94.10;;;;;;4815744;29;20464;-72
2021/07/29 11:05:38;;;;;;;1.97;1.87;;;22.40;94.30;;;;;;4802696;29;20227;-73
2021/07/29 11:08:04;;;;;;;3.93;2.60;;;22.40;94.20;;;;;;4803302;29;20482;-72
2021/07/29 11:10:30;;;;;;;2.60;2.40;;;22.40;94.50;;;;;;4801305;29;20481;-72
2021/07/29 11:12:56;;;;;;;3.87;2.63;;;22.40;94.60;;;;;;4817590;29;20480;-72
2021/07/29 11:15:22;;;;;;;2.40;2.20;;;22.40;94.60;;;;;;4802737;29;20212;-72
2021/07/29 11:17:48;;;;;;;2.30;2.10;;;22.40;94.60;;;;;;4800703;29;20294;-72
2021/07/29 11:20:24;;;;;;;2.60;2.40;;;22.50;94.60;;;;;;4814378;29;20460;-72
2021/07/29 11:22:50;;;;;;;2.60;2.40;;;22.60;94.80;;;;;;4822381;29;20646;-71
2021/07/29 11:25:16;;;;;;;3.07;2.40;;;22.80;93.60;;;;;;4818770;29;20464;-72
2021/07/29 11:27:42;;;;;;;5.13;2.13;;;22.90;93.40;;;;;;4813753;29;20274;-73
2021/07/29 11:30:08;;;;;;;2.33;2.13;;;23.00;93.50;;;;;;4815424;29;20528;-73
2021/07/29 11:32:35;;;;;;;4.33;2.20;;;23.10;94.00;;;;;;4799030;29;20472;-72
2021/07/29 11:35:01;;;;;;;1.80;1.70;;;23.30;93.10;;;;;;4815994;29;20468;-72
2021/07/29 11:37:35;;;;;;;2.30;2.10;;;23.40;93.10;;;;;;4818939;29;20476;-72
2021/07/29 11:40:01;;;;;;;2.30;2.20;;;23.50;93.40;;;;;;4831676;29;20874;-71
2021/07/29 11:42:45;;;;;;;2.70;2.50;;;23.60;93.00;;;;;;4811024;29;20484;-72
2021/07/29 11:45:21;;;;;;;2.63;2.30;;;23.50;92.30;;;;;;4820769;29;20383;-72
2021/07/29 11:47:47;;;;;;;2.30;1.77;;;23.50;92.40;;;;;;4815488;29;20845;-73
2021/07/29 11:50:13;;;;;;;2.33;2.13;;;23.50;92.70;;;;;;4813036;29;20470;-73
2021/07/29 11:52:52;;;;;;;3.40;2.10;;;23.50;93.00;;;;;;4819222;29;20702;-72
2021/07/29 11:55:20;;;;;;;2.00;1.90;;;23.60;92.90;;;;;;4812455;29;20700;-72
2021/07/29 11:57:46;;;;;;;2.37;2.17;;;23.70;93.20;;;;;;4824474;29;20479;-72
2021/07/29 12:00:26;;;;;;;1.83;1.73;;;23.90;92.40;;;;;;4811458;29;20459;-72
2021/07/29 12:02:51;;;;;;;2.40;2.20;;;24.00;91.80;;;;;;4798091;29;20310;-72
2021/07/29 12:05:17;;;;;;;2.60;2.40;;;24.00;91.80;;;;;;4817635;29;20644;-72
2021/07/29 12:07:43;;;;;;;2.00;1.90;;;24.10;92.40;;;;;;4802696;29;20223;-72
2021/07/29 12:10:09;;;;;;;2.53;2.33;;;24.20;92.00;;;;;;4800259;29;20677;-71
2021/07/29 12:12:36;;;;;;;1.70;1.60;;;24.30;92.60;;;;;;4796357;29;20313;-72
2021/07/29 12:15:02;;;;;;;2.00;1.90;;;24.50;92.40;;;;;;4801146;29;20496;-72
2021/07/29 12:17:28;;;;;;;2.20;2.00;;;24.60;91.80;;;;;;4819460;29;20516;-72
2021/07/29 12:19:58;;;;;;;3.57;2.20;;;24.80;91.20;;;;;;4817990;29;20234;-72
2021/07/29 12:22:28;;;;;;;2.60;2.20;;;24.80;91.90;;;;;;4807375;29;20254;-71
2021/07/29 12:24:56;;;;;;;2.40;2.10;;;24.90;91.90;;;;;;4829987;29;21004;-71
2021/07/29 12:27:22;;;;;;;4.73;2.70;;;24.90;91.80;;;;;;4822081;29;20468;-72
2021/07/29 12:29:48;;;;;;;2.80;2.33;;;25.00;91.80;;;;;;4807415;29;20471;-72
2021/07/29 12:32:25;;;;;;;2.13;1.90;;;25.00;91.90;;;;;;4807886;29;20591;-72
2021/07/29 12:34:53;;;;;;;4.10;2.27;;;25.10;91.60;;;;;;4813480;29;20463;-72
2021/07/29 12:37:36;;;;;;;2.00;1.90;;;25.20;91.60;;;;;;4822931;29;20472;-71
2021/07/29 12:40:04;;;;;;;3.43;2.30;;;25.30;92.00;;;;;;4805379;29;20791;-72
2021/07/29 12:42:31;;;;;;;2.37;2.10;;;25.40;91.90;;;;;;4820833;29;20460;-71
2021/07/29 12:45:00;;;;;;;2.40;2.20;;;25.50;91.60;;;;;;4807304;29;21110;-72
2021/07/29 12:47:26;;;;;;;3.00;2.10;;;25.50;91.30;;;;;;4838918;29;21063;-72
2021/07/29 12:49:51;;;;;;;2.57;2.37;;;25.60;91.10;;;;;;4838792;29;20464;-71
2021/07/29 12:52:27;;;;;;;1.87;1.77;;;25.70;91.00;;;;;;4807458;29;20483;-71
2021/07/29 12:55:07;;;;;;;2.97;2.00;;;25.60;91.40;;;;;;4822505;29;20225;-72